Time;durP1;ratioP1;P1;durP2;ratioP2;P2;SDS_P1;SDS_P2;PMS_P1;PMS_P2;Temp;Humidity;BMP_temperature;BMP_pressure;BME280_temperature;BME280_humidity;BME280_pressure;Samples;Min_cycle;Max_cycle;Signal;HPM_P1;HPM_P2
2021/12/27 00:01:44;;;;;;;10.98;6.00;;;;;;;;;;5060872;28;20078;-75
2021/12/27 00:04:10;;;;;;;10.18;4.95;;;;;;;;;;5060781;28;20062;-75
2021/12/27 00:06:36;;;;;;;8.75;4.97;;;;;;;;;;5077905;28;20372;-76
2021/12/27 00:09:03;;;;;;;9.90;4.45;;;;;;;;;;5078442;28;20016;-76
2021/12/27 00:11:29;;;;;;;11.15;6.07;;;;;;;;;;5043857;28;20107;-76
2021/12/27 00:13:55;;;;;;;8.25;5.13;;;;;;;;;;5043705;28;20487;-76
2021/12/27 00:16:21;;;;;;;9.75;5.70;;;;;;;;;;5060390;28;20016;-76
2021/12/27 00:18:47;;;;;;;7.70;4.82;;;;;;;;;;5078176;28;20414;-76
2021/12/27 00:21:13;;;;;;;8.73;4.75;;;;;;;;;;5060283;28;20028;-76
2021/12/27 00:23:39;;;;;;;15.52;7.60;;;;;;;;;;5078252;28;20020;-77
2021/12/27 00:26:05;;;;;;;18.23;9.48;;;;;;;;;;5078096;28;20023;-76
2021/12/27 00:28:33;;;;;;;11.38;6.25;;;;;;;;;;5078095;28;20427;-76
2021/12/27 00:30:59;;;;;;;11.60;5.20;;;;;;;;;;5059972;28;20025;-76
2021/12/27 00:33:25;;;;;;;8.18;4.22;;;;;;;;;;5078087;28;20020;-76
2021/12/27 00:35:51;;;;;;;11.27;5.43;;;;;;;;;;5078522;28;20381;-76
2021/12/27 00:38:17;;;;;;;7.93;5.15;;;;;;;;;;5078119;28;20410;-76
2021/12/27 00:40:43;;;;;;;6.18;4.13;;;;;;;;;;5060161;28;20020;-77
2021/12/27 00:43:10;;;;;;;6.28;3.28;;;;;;;;;;5077565;28;20448;-76
2021/12/27 00:45:36;;;;;;;6.47;3.40;;;;;;;;;;5043159;28;20123;-76
2021/12/27 00:48:02;;;;;;;5.15;2.50;;;;;;;;;;5077105;28;20422;-76
2021/12/27 00:50:29;;;;;;;4.75;2.83;;;;;;;;;;5059678;28;20315;-76
2021/12/27 00:52:56;;;;;;;15.85;6.43;;;;;;;;;;5077475;28;20027;-76
2021/12/27 00:55:22;;;;;;;23.38;6.80;;;;;;;;;;5077699;28;20029;-76
2021/12/27 00:57:49;;;;;;;14.43;5.90;;;;;;;;;;5059639;28;20044;-76
2021/12/27 01:00:16;;;;;;;10.95;4.82;;;;;;;;;;5059063;28;20020;-76
2021/12/27 01:02:43;;;;;;;8.95;4.10;;;;;;;;;;5043198;28;20035;-76
2021/12/27 01:05:09;;;;;;;7.22;3.17;;;;;;;;;;5076685;28;20027;-76
2021/12/27 01:07:36;;;;;;;9.13;4.50;;;;;;;;;;5077397;28;20074;-76
2021/12/27 01:17:54;;;;;;;5.10;3.03;;;;;;;;;;5063697;28;20484;-76
2021/12/27 01:20:25;;;;;;;6.53;3.10;;;;;;;;;;5033417;28;20037;-76
2021/12/27 01:22:56;;;;;;;9.27;4.40;;;;;;;;;;5052876;28;20430;-76
2021/12/27 01:25:26;;;;;;;14.43;7.82;;;;;;;;;;5035790;28;20109;-76
2021/12/27 01:28:13;;;;;;;18.38;8.98;;;;;;;;;;5038367;28;20040;-76
2021/12/27 01:30:50;;;;;;;19.33;9.38;;;;;;;;;;5053486;28;20016;-76
2021/12/27 01:33:37;;;;;;;17.38;9.57;;;;;;;;;;5054079;28;20487;-76
2021/12/27 01:36:07;;;;;;;12.48;4.57;;;;;;;;;;5038454;28;20028;-75
2021/12/27 01:38:39;;;;;;;7.53;4.93;;;;;;;;;;5074633;28;20027;-74
2021/12/27 01:41:18;;;;;;;7.57;4.75;;;;;;;;;;5038594;28;20027;-75
2021/12/27 01:43:47;;;;;;;8.63;4.32;;;;;;;;;;5073030;28;20232;-75
2021/12/27 01:46:17;;;;;;;10.27;5.60;;;;;;;;;;5056141;28;20020;-75
2021/12/27 01:48:56;;;;;;;10.60;7.00;;;;;;;;;;5040335;28;20031;-75
2021/12/27 01:51:27;;;;;;;9.80;6.55;;;;;;;;;;5031235;28;20044;-75
2021/12/27 01:54:06;;;;;;;9.40;5.57;;;;;;;;;;5036617;28;20066;-75
2021/12/27 01:56:42;;;;;;;8.93;5.85;;;;;;;;;;5055650;28;20426;-75
2021/12/27 01:59:15;;;;;;;9.40;4.80;;;;;;;;;;5052024;28;20366;-74
2021/12/27 02:02:00;;;;;;;7.85;4.90;;;;;;;;;;5038516;28;20043;-75
2021/12/27 02:04:31;;;;;;;11.02;5.78;;;;;;;;;;5040097;28;20024;-75
2021/12/27 02:07:07;;;;;;;11.73;5.55;;;;;;;;;;5057276;28;20360;-75
2021/12/27 02:09:52;;;;;;;12.18;5.60;;;;;;;;;;5072012;28;20028;-75
2021/12/27 02:12:22;;;;;;;11.43;6.88;;;;;;;;;;5052608;28;20031;-75
2021/12/27 02:14:54;;;;;;;9.67;6.20;;;;;;;;;;5039982;28;20410;-75
2021/12/27 02:17:26;;;;;;;16.05;8.25;;;;;;;;;;5042674;28;20502;-76
2021/12/27 02:19:55;;;;;;;17.48;8.70;;;;;;;;;;5041329;28;20240;-75
2021/12/27 02:22:22;;;;;;;11.38;6.60;;;;;;;;;;5058796;28;20413;-75
2021/12/27 02:24:49;;;;;;;12.52;8.07;;;;;;;;;;5042115;28;20325;-75
2021/12/27 02:27:23;;;;;;;16.15;8.98;;;;;;;;;;5077507;28;20334;-75
2021/12/27 02:29:57;;;;;;;17.80;12.20;;;;;;;;;;5042852;28;20074;-75
2021/12/27 02:32:28;;;;;;;16.05;10.10;;;;;;;;;;5043070;28;20461;-75
2021/12/27 02:34:55;;;;;;;14.82;10.40;;;;;;;;;;5059595;28;20055;-74
2021/12/27 02:37:22;;;;;;;18.23;10.57;;;;;;;;;;5042801;28;20055;-74
2021/12/27 02:39:49;;;;;;;16.13;10.88;;;;;;;;;;5060382;28;20024;-75
2021/12/27 02:42:20;;;;;;;16.55;10.00;;;;;;;;;;5043130;28;20038;-75
2021/12/27 02:44:50;;;;;;;15.98;11.00;;;;;;;;;;5077112;28;20028;-75
2021/12/27 02:47:22;;;;;;;22.73;13.68;;;;;;;;;;5042961;28;20044;-76
2021/12/27 02:49:53;;;;;;;21.45;12.55;;;;;;;;;;5058889;28;20450;-76
2021/12/27 02:52:21;;;;;;;24.00;13.95;;;;;;;;;;5041254;28;20025;-75
2021/12/27 02:55:01;;;;;;;18.35;10.75;;;;;;;;;;5024404;28;20128;-75
2021/12/27 02:57:33;;;;;;;17.58;11.32;;;;;;;;;;5057852;28;20021;-75
2021/12/27 03:00:06;;;;;;;19.13;11.52;;;;;;;;;;5055783;28;20089;-75
2021/12/27 03:02:36;;;;;;;21.35;13.48;;;;;;;;;;5054162;28;20311;-75
2021/12/27 03:05:03;;;;;;;29.83;17.05;;;;;;;;;;5056867;28;20012;-75
2021/12/27 03:07:33;;;;;;;25.20;13.70;;;;;;;;;;5040536;28;20025;-75
2021/12/27 03:10:04;;;;;;;23.02;11.30;;;;;;;;;;5021053;28;20125;-75
2021/12/27 03:12:31;;;;;;;18.85;10.25;;;;;;;;;;5041615;28;20048;-74
2021/12/27 03:15:03;;;;;;;22.58;11.70;;;;;;;;;;5040556;28;20190;-74
2021/12/27 03:17:35;;;;;;;19.38;11.25;;;;;;;;;;5039964;28;20067;-74
2021/12/27 03:20:05;;;;;;;23.70;12.23;;;;;;;;;;5040952;28;20024;-74
2021/12/27 03:22:37;;;;;;;19.50;10.88;;;;;;;;;;5057403;28;20492;-75
2021/12/27 03:25:06;;;;;;;17.48;8.93;;;;;;;;;;5041097;28;20334;-75
2021/12/27 03:27:44;;;;;;;22.70;10.23;;;;;;;;;;5052883;28;20092;-74
2021/12/27 03:30:19;;;;;;;25.00;8.88;;;;;;;;;;5056651;28;20422;-74
2021/12/27 03:32:46;;;;;;;11.93;7.00;;;;;;;;;;5056821;28;20108;-75
2021/12/27 03:35:15;;;;;;;10.68;6.35;;;;;;;;;;5054972;28;20434;-74
2021/12/27 03:37:47;;;;;;;12.13;7.25;;;;;;;;;;5057079;28;20027;-74
2021/12/27 03:40:16;;;;;;;10.65;6.45;;;;;;;;;;5056302;28;20356;-75
2021/12/27 03:42:50;;;;;;;12.40;5.47;;;;;;;;;;5036982;28;20103;-76
2021/12/27 03:45:19;;;;;;;12.40;5.80;;;;;;;;;;5040070;28;20023;-75
2021/12/27 03:47:57;;;;;;;15.63;6.43;;;;;;;;;;5050340;28;20025;-75
2021/12/27 03:50:56;;;;;;;12.85;7.05;;;;;;;;;;5054865;28;20084;-75
2021/12/27 03:53:23;;;;;;;14.15;9.38;;;;;;;;;;5056299;28;20025;-75
2021/12/27 03:55:57;;;;;;;17.70;9.52;;;;;;;;;;5074130;28;20386;-75
2021/12/27 03:58:34;;;;;;;19.58;10.85;;;;;;;;;;5074845;28;20101;-75
2021/12/27 04:01:16;;;;;;;18.35;9.25;;;;;;;;;;5014747;28;20052;-75
2021/12/27 04:03:47;;;;;;;33.47;18.73;;;;;;;;;;5056759;28;20021;-75
2021/12/27 04:06:27;;;;;;;30.00;18.27;;;;;;;;;;5055376;28;20137;-75
2021/12/27 04:09:01;;;;;;;30.48;18.45;;;;;;;;;;5075185;28;20016;-76
2021/12/27 04:11:43;;;;;;;28.73;15.82;;;;;;;;;;5056552;28;20024;-75
2021/12/27 04:14:11;;;;;;;24.08;13.90;;;;;;;;;;5035114;28;20071;-74
2021/12/27 04:16:38;;;;;;;22.85;13.85;;;;;;;;;;5055145;28;20373;-75
2021/12/27 04:19:11;;;;;;;19.80;12.73;;;;;;;;;;5054683;28;20017;-75
2021/12/27 04:21:49;;;;;;;21.30;12.30;;;;;;;;;;5024929;28;20037;-75
2021/12/27 04:24:16;;;;;;;19.85;12.45;;;;;;;;;;5070103;28;20019;-75
2021/12/27 04:26:43;;;;;;;19.70;11.60;;;;;;;;;;5038234;28;20422;-74
2021/12/27 04:29:14;;;;;;;23.17;12.88;;;;;;;;;;5054260;28;20023;-74
2021/12/27 04:32:03;;;;;;;27.77;12.15;;;;;;;;;;5037403;28;20349;-74
2021/12/27 04:34:32;;;;;;;22.88;13.23;;;;;;;;;;5037804;28;20123;-74
2021/12/27 04:37:00;;;;;;;26.77;13.48;;;;;;;;;;5038491;28;20039;-73
2021/12/27 04:39:28;;;;;;;31.83;16.80;;;;;;;;;;5053826;28;20393;-74
2021/12/27 04:41:56;;;;;;;27.60;16.33;;;;;;;;;;5053830;28;20048;-74
2021/12/27 04:44:26;;;;;;;29.02;15.95;;;;;;;;;;5037204;28;20044;-74
2021/12/27 04:46:53;;;;;;;27.42;17.20;;;;;;;;;;5054364;28;20353;-74
2021/12/27 04:49:20;;;;;;;32.05;19.38;;;;;;;;;;5038423;28;20107;-74
2021/12/27 04:51:46;;;;;;;26.58;17.27;;;;;;;;;;5038042;28;20024;-74
2021/12/27 04:54:14;;;;;;;27.90;14.27;;;;;;;;;;5073126;28;20012;-74
2021/12/27 04:56:43;;;;;;;24.42;13.15;;;;;;;;;;5038963;28;20078;-73
2021/12/27 04:59:09;;;;;;;23.42;14.57;;;;;;;;;;5056007;28;20020;-73
2021/12/27 05:01:37;;;;;;;22.30;13.05;;;;;;;;;;5038504;28;20032;-73
2021/12/27 05:04:09;;;;;;;24.13;13.55;;;;;;;;;;5072611;28;20028;-74
2021/12/27 05:06:39;;;;;;;21.27;13.82;;;;;;;;;;5038780;28;20021;-73
2021/12/27 05:09:09;;;;;;;21.90;15.15;;;;;;;;;;5074670;28;20024;-73
2021/12/27 05:11:37;;;;;;;15.80;10.63;;;;;;;;;;5039863;28;20021;-73
2021/12/27 05:14:04;;;;;;;14.15;9.70;;;;;;;;;;5036560;28;20331;-73
2021/12/27 05:17:01;;;;;;;24.00;13.82;;;;;;;;;;5055830;28;20468;-72
2021/12/27 05:19:28;;;;;;;21.88;13.93;;;;;;;;;;5055360;28;20102;-72
2021/12/27 05:21:54;;;;;;;22.50;14.38;;;;;;;;;;5056231;28;20422;-72
2021/12/27 05:24:22;;;;;;;26.48;14.25;;;;;;;;;;5074785;28;20020;-72
2021/12/27 05:26:49;;;;;;;17.95;12.48;;;;;;;;;;5073564;28;20034;-72
2021/12/27 05:29:17;;;;;;;20.25;13.10;;;;;;;;;;5055880;28;20103;-72
2021/12/27 05:31:44;;;;;;;21.65;13.48;;;;;;;;;;5056445;28;20024;-72
2021/12/27 05:34:11;;;;;;;17.70;12.85;;;;;;;;;;5055822;28;20467;-73
2021/12/27 05:36:37;;;;;;;19.90;12.90;;;;;;;;;;5055170;28;20012;-74
2021/12/27 05:39:03;;;;;;;19.52;13.32;;;;;;;;;;5055508;28;20028;-73
2021/12/27 05:41:30;;;;;;;17.90;10.63;;;;;;;;;;5074463;28;20294;-73
2021/12/27 05:43:57;;;;;;;22.08;14.73;;;;;;;;;;5039297;28;20029;-73
2021/12/27 05:46:23;;;;;;;21.88;14.60;;;;;;;;;;5073684;28;20040;-72
2021/12/27 05:48:49;;;;;;;19.77;13.70;;;;;;;;;;5039098;28;20023;-73
2021/12/27 05:51:16;;;;;;;25.73;16.40;;;;;;;;;;5037550;28;20189;-72
2021/12/27 05:53:43;;;;;;;31.75;16.48;;;;;;;;;;5058331;28;20025;-73
2021/12/27 05:56:09;;;;;;;19.45;13.35;;;;;;;;;;5057838;28;20016;-73
2021/12/27 05:58:36;;;;;;;21.70;13.77;;;;;;;;;;5040539;28;20346;-73
2021/12/27 06:01:02;;;;;;;24.60;15.43;;;;;;;;;;5040674;28;20051;-73
2021/12/27 06:03:31;;;;;;;20.70;13.70;;;;;;;;;;5076157;28;20063;-72
2021/12/27 06:06:00;;;;;;;22.17;12.35;;;;;;;;;;5043111;28;20012;-72
2021/12/27 06:08:32;;;;;;;28.23;17.42;;;;;;;;;;5041667;28;20445;-75
2021/12/27 06:11:06;;;;;;;25.48;16.17;;;;;;;;;;5040366;28;20021;-72
2021/12/27 06:13:33;;;;;;;29.00;17.15;;;;;;;;;;5039687;28;20165;-74
2021/12/27 06:15:59;;;;;;;28.67;17.50;;;;;;;;;;5057302;28;20043;-73
2021/12/27 06:18:25;;;;;;;26.42;17.25;;;;;;;;;;5056579;28;20047;-73
2021/12/27 06:20:52;;;;;;;31.67;16.63;;;;;;;;;;5039613;28;20020;-74
2021/12/27 06:23:20;;;;;;;28.83;18.42;;;;;;;;;;5036837;28;20040;-74
2021/12/27 06:25:47;;;;;;;33.22;21.15;;;;;;;;;;5054319;28;20024;-74
2021/12/27 06:28:16;;;;;;;37.78;20.58;;;;;;;;;;5057418;28;20073;-74
2021/12/27 06:30:42;;;;;;;34.35;19.67;;;;;;;;;;5057378;28;20061;-74
2021/12/27 06:33:10;;;;;;;36.72;22.60;;;;;;;;;;5074962;28;20086;-74
2021/12/27 06:35:38;;;;;;;51.20;30.23;;;;;;;;;;5040862;28;20115;-74
2021/12/27 06:38:04;;;;;;;30.23;20.38;;;;;;;;;;5038096;28;20399;-74
2021/12/27 06:40:31;;;;;;;34.80;21.85;;;;;;;;;;5040768;28;20614;-73
2021/12/27 06:43:00;;;;;;;25.80;18.02;;;;;;;;;;5040445;28;20378;-74
2021/12/27 06:45:29;;;;;;;28.67;19.33;;;;;;;;;;5040423;28;20024;-73
2021/12/27 06:47:57;;;;;;;32.55;21.77;;;;;;;;;;5042388;28;20028;-74
2021/12/27 06:50:35;;;;;;;31.85;19.77;;;;;;;;;;5077243;28;20035;-74
2021/12/27 06:53:07;;;;;;;27.35;18.92;;;;;;;;;;5043086;28;20028;-74
2021/12/27 06:55:34;;;;;;;26.00;17.77;;;;;;;;;;5029084;28;20044;-73
2021/12/27 06:58:00;;;;;;;32.42;19.88;;;;;;;;;;5059151;28;20421;-74
2021/12/27 07:00:27;;;;;;;27.30;17.73;;;;;;;;;;5058518;28;20101;-74
2021/12/27 07:02:57;;;;;;;29.15;18.35;;;;;;;;;;5076049;28;20395;-75
2021/12/27 07:05:40;;;;;;;29.95;19.23;;;;;;;;;;5043713;28;20063;-74
2021/12/27 07:08:10;;;;;;;29.13;18.35;;;;;;;;;;5041850;28;20013;-74
2021/12/27 07:10:42;;;;;;;30.33;17.75;;;;;;;;;;5059922;28;20025;-74
2021/12/27 07:13:14;;;;;;;30.92;20.27;;;;;;;;;;5058283;28;20023;-75
2021/12/27 07:15:41;;;;;;;31.33;19.88;;;;;;;;;;5058610;28;20288;-74
2021/12/27 07:18:10;;;;;;;27.45;18.05;;;;;;;;;;5041404;28;20078;-76
2021/12/27 07:20:37;;;;;;;33.63;17.88;;;;;;;;;;5041547;28;20035;-74
2021/12/27 07:23:04;;;;;;;33.17;18.23;;;;;;;;;;5076795;28;20035;-74
2021/12/27 07:25:32;;;;;;;33.03;19.75;;;;;;;;;;5042786;28;20040;-74
2021/12/27 07:28:00;;;;;;;37.72;22.17;;;;;;;;;;5042869;28;20051;-74
2021/12/27 07:30:31;;;;;;;43.10;19.65;;;;;;;;;;5076720;28;20138;-73
2021/12/27 07:33:04;;;;;;;33.35;22.50;;;;;;;;;;5058629;28;20402;-74
2021/12/27 07:35:31;;;;;;;38.08;22.10;;;;;;;;;;5041616;28;20036;-74
2021/12/27 07:38:00;;;;;;;30.45;18.02;;;;;;;;;;5040897;28;20029;-74
2021/12/27 07:40:30;;;;;;;41.78;22.40;;;;;;;;;;5039530;28;20024;-74
2021/12/27 07:43:01;;;;;;;34.58;21.02;;;;;;;;;;5042139;28;20097;-74
2021/12/27 07:45:29;;;;;;;39.17;21.15;;;;;;;;;;5056387;28;20109;-74
2021/12/27 07:47:57;;;;;;;36.22;18.30;;;;;;;;;;5040653;28;20082;-74
2021/12/27 07:50:26;;;;;;;52.03;27.17;;;;;;;;;;5075596;28;20119;-74
2021/12/27 07:52:57;;;;;;;34.65;21.65;;;;;;;;;;5040282;28;20080;-74
2021/12/27 07:55:28;;;;;;;34.22;22.83;;;;;;;;;;5040938;28;20024;-75
2021/12/27 07:58:02;;;;;;;38.50;24.38;;;;;;;;;;5058195;28;20351;-74
2021/12/27 08:00:32;;;;;;;37.28;22.80;;;;;;;;;;5041662;28;20432;-74
2021/12/27 08:03:03;;;;;;;35.97;21.67;;;;;;;;;;5076673;28;20028;-73
2021/12/27 08:05:32;;;;;;;35.88;22.77;;;;;;;;;;5040830;28;20024;-74
2021/12/27 08:08:00;;;;;;;34.40;19.73;;;;;;;;;;5041081;28;20032;-74
2021/12/27 08:10:28;;;;;;;32.53;21.10;;;;;;;;;;5040229;28;20426;-74
2021/12/27 08:12:58;;;;;;;33.65;20.23;;;;;;;;;;5074984;28;20337;-74
2021/12/27 08:15:24;;;;;;;39.60;21.48;;;;;;;;;;5054781;28;20820;-74
2021/12/27 08:17:51;;;;;;;36.67;20.08;;;;;;;;;;5041791;28;20052;-74
2021/12/27 08:20:20;;;;;;;32.67;18.98;;;;;;;;;;5057152;28;20414;-74
2021/12/27 08:22:54;;;;;;;27.73;17.38;;;;;;;;;;5043177;28;20036;-75
2021/12/27 08:25:21;;;;;;;33.30;18.40;;;;;;;;;;5058798;28;20017;-74
2021/12/27 08:27:49;;;;;;;32.90;18.90;;;;;;;;;;5024683;28;20426;-74
2021/12/27 08:30:19;;;;;;;38.08;20.48;;;;;;;;;;5025745;28;20126;-74
2021/12/27 08:32:49;;;;;;;33.30;21.85;;;;;;;;;;5041745;28;20024;-74
2021/12/27 08:35:16;;;;;;;37.53;20.20;;;;;;;;;;5058049;28;20085;-74
2021/12/27 08:37:49;;;;;;;38.33;21.45;;;;;;;;;;5075730;28;20016;-75
2021/12/27 08:40:21;;;;;;;36.08;20.40;;;;;;;;;;5040668;28;20021;-74
2021/12/27 08:42:48;;;;;;;35.65;23.13;;;;;;;;;;5041981;28;20054;-74
2021/12/27 08:45:15;;;;;;;35.63;23.13;;;;;;;;;;5058040;28;20047;-74
2021/12/27 08:47:42;;;;;;;42.38;24.83;;;;;;;;;;5040677;28;20028;-74
2021/12/27 08:50:12;;;;;;;44.33;22.30;;;;;;;;;;5057878;28;20032;-74
2021/12/27 08:52:41;;;;;;;45.70;26.03;;;;;;;;;;5075800;28;20021;-74
2021/12/27 08:55:08;;;;;;;47.30;29.33;;;;;;;;;;5041252;28;20295;-74
2021/12/27 08:57:34;;;;;;;42.55;25.63;;;;;;;;;;5076465;28;20047;-74
2021/12/27 09:00:01;;;;;;;47.20;27.13;;;;;;;;;;5058550;28;20184;-74
2021/12/27 09:02:28;;;;;;;44.20;24.67;;;;;;;;;;5057671;28;20032;-74
2021/12/27 09:04:54;;;;;;;44.47;27.52;;;;;;;;;;5074723;28;20013;-75
2021/12/27 09:07:23;;;;;;;46.53;28.45;;;;;;;;;;5041229;28;20373;-75
2021/12/27 09:09:50;;;;;;;50.28;28.17;;;;;;;;;;5024639;28;20067;-75
2021/12/27 09:12:16;;;;;;;50.53;26.83;;;;;;;;;;5075114;28;20021;-75
2021/12/27 09:14:42;;;;;;;50.10;25.52;;;;;;;;;;5075885;28;20326;-75
2021/12/27 09:17:08;;;;;;;59.35;31.88;;;;;;;;;;5075546;28;20503;-75
2021/12/27 09:19:34;;;;;;;60.22;30.23;;;;;;;;;;5058533;28;20059;-75
2021/12/27 09:22:00;;;;;;;56.50;32.40;;;;;;;;;;5042053;28;20480;-75
2021/12/27 09:24:26;;;;;;;49.53;28.42;;;;;;;;;;5058736;28;20032;-76
2021/12/27 09:26:52;;;;;;;52.15;28.80;;;;;;;;;;5058719;28;20032;-76
2021/12/27 09:29:18;;;;;;;50.83;28.48;;;;;;;;;;5058635;28;20315;-75
2021/12/27 09:31:44;;;;;;;47.55;29.27;;;;;;;;;;5058412;28;20417;-75
2021/12/27 09:34:10;;;;;;;43.35;24.13;;;;;;;;;;5042229;28;20132;-75
2021/12/27 09:36:36;;;;;;;45.22;25.15;;;;;;;;;;5059073;28;20028;-75
2021/12/27 09:39:02;;;;;;;43.60;23.92;;;;;;;;;;5076150;28;20380;-75
2021/12/27 09:41:28;;;;;;;47.22;27.52;;;;;;;;;;5058634;28;20024;-74
2021/12/27 09:43:55;;;;;;;42.78;27.38;;;;;;;;;;5042224;28;20042;-75
2021/12/27 09:46:22;;;;;;;49.20;27.95;;;;;;;;;;5042319;28;20041;-74
2021/12/27 09:48:50;;;;;;;46.75;29.38;;;;;;;;;;5058788;28;20028;-75
2021/12/27 09:51:16;;;;;;;55.88;30.30;;;;;;;;;;5076590;28;20029;-75
2021/12/27 09:53:42;;;;;;;51.75;29.10;;;;;;;;;;5076433;28;20021;-75
2021/12/27 09:56:09;;;;;;;49.70;26.58;;;;;;;;;;5076139;28;20017;-75
2021/12/27 09:58:36;;;;;;;48.83;27.58;;;;;;;;;;5058487;28;20038;-75
2021/12/27 10:01:03;;;;;;;50.65;29.55;;;;;;;;;;5076057;28;20062;-75
2021/12/27 10:03:30;;;;;;;49.65;29.02;;;;;;;;;;5058400;28;20029;-75
2021/12/27 10:06:12;;;;;;;54.08;29.23;;;;;;;;;;5076510;28;20024;-76
2021/12/27 10:08:38;;;;;;;51.70;29.52;;;;;;;;;;5076557;28;20025;-74
2021/12/27 10:11:04;;;;;;;47.58;28.77;;;;;;;;;;5066013;22;20074;-75
2021/12/27 10:13:30;;;;;;;44.17;25.40;;;;;;;;;;5075718;28;20021;-74
2021/12/27 10:15:56;;;;;;;48.03;27.98;;;;;;;;;;5058791;28;20059;-75
2021/12/27 10:18:23;;;;;;;42.50;27.40;;;;;;;;;;5076307;28;20024;-75
2021/12/27 10:20:49;;;;;;;51.97;28.92;;;;;;;;;;5076722;28;20028;-75
2021/12/27 10:23:19;;;;;;;56.03;31.00;;;;;;;;;;5058338;28;20036;-75
2021/12/27 10:25:45;;;;;;;;;;;;;;;;;;5042277;28;20021;-75
2021/12/27 10:28:11;;;;;;;50.33;29.67;;;;;;;;;;5057645;28;20341;-75
2021/12/27 10:30:41;;;;;;;51.88;30.10;;;;;;;;;;5075710;28;20044;-76
2021/12/27 10:33:23;;;;;;;56.80;31.37;;;;;;;;;;5057819;28;20342;-75
2021/12/27 10:35:50;;;;;;;55.08;31.05;;;;;;;;;;5057816;28;20283;-75
2021/12/27 10:38:23;;;;;;;53.15;32.75;;;;;;;;;;5077876;28;20016;-75
2021/12/27 10:40:53;;;;;;;51.38;31.70;;;;;;;;;;5062223;28;20021;-75
2021/12/27 10:43:31;;;;;;;51.53;32.10;;;;;;;;;;5062095;28;20040;-75
2021/12/27 10:46:02;;;;;;;52.03;31.33;;;;;;;;;;5079880;28;20024;-75
2021/12/27 10:48:41;;;;;;;55.95;30.63;;;;;;;;;;5079353;28;20016;-75
2021/12/27 10:51:07;;;;;;;49.85;30.13;;;;;;;;;;5061615;28;20016;-75
2021/12/27 10:53:48;;;;;;;57.35;30.63;;;;;;;;;;5062087;28;20070;-75
2021/12/27 10:56:15;;;;;;;48.10;28.90;;;;;;;;;;5062308;28;20027;-75
2021/12/27 10:58:51;;;;;;;56.30;32.85;;;;;;;;;;5068977;22;20048;-75
2021/12/27 11:01:20;;;;;;;52.88;29.88;;;;;;;;;;5079072;28;20048;-75
2021/12/27 11:03:50;;;;;;;56.05;31.75;;;;;;;;;;5079803;28;20032;-75
2021/12/27 11:06:18;;;;;;;52.10;30.03;;;;;;;;;;5061564;28;20119;-75
2021/12/27 11:08:45;;;;;;;54.42;29.92;;;;;;;;;;5044809;28;20418;-75
2021/12/27 11:11:12;;;;;;;61.85;34.42;;;;;;;;;;5045246;28;20119;-75
2021/12/27 11:13:39;;;;;;;54.35;30.98;;;;;;;;;;5061342;28;20099;-76
2021/12/27 11:16:05;;;;;;;57.42;30.83;;;;;;;;;;5079335;28;20026;-76
2021/12/27 11:18:31;;;;;;;49.15;31.92;;;;;;;;;;5060903;28;20043;-75
2021/12/27 11:20:58;;;;;;;50.92;31.67;;;;;;;;;;5079262;28;20017;-75
2021/12/27 11:23:25;;;;;;;51.03;31.63;;;;;;;;;;5078500;28;20040;-75
2021/12/27 11:26:00;;;;;;;55.53;30.50;;;;;;;;;;5061436;28;20021;-75
2021/12/27 11:28:26;;;;;;;65.10;33.58;;;;;;;;;;5060649;28;20019;-75
2021/12/27 11:30:52;;;;;;;66.00;34.65;;;;;;;;;;5061550;28;20028;-75
2021/12/27 11:33:20;;;;;;;67.68;35.55;;;;;;;;;;5060780;28;20017;-74
2021/12/27 11:35:46;;;;;;;62.35;34.25;;;;;;;;;;5060654;28;20020;-75
2021/12/27 11:38:19;;;;;;;72.05;35.63;;;;;;;;;;5078932;28;20039;-75
2021/12/27 11:40:46;;;;;;;62.80;36.65;;;;;;;;;;5078309;28;20028;-75
2021/12/27 11:43:12;;;;;;;69.78;36.45;;;;;;;;;;5044356;28;20052;-75
2021/12/27 11:45:40;;;;;;;72.20;39.97;;;;;;;;;;5079071;28;20036;-76
2021/12/27 11:48:15;;;;;;;70.70;36.75;;;;;;;;;;5067936;22;20039;-75
2021/12/27 11:50:57;;;;;;;76.50;42.80;;;;;;;;;;5060702;28;20020;-75
2021/12/27 11:53:30;;;;;;;76.43;40.83;;;;;;;;;;5078727;28;20069;-75
2021/12/27 11:55:56;;;;;;;75.78;39.63;;;;;;;;;;5086060;22;20068;-75
2021/12/27 11:58:35;;;;;;;71.38;40.35;;;;;;;;;;5061014;28;20056;-75
2021/12/27 12:01:03;;;;;;;74.20;42.38;;;;;;;;;;5060792;28;20016;-75
2021/12/27 12:03:37;;;;;;;70.57;40.45;;;;;;;;;;5078510;28;20068;-75
2021/12/27 12:06:04;;;;;;;70.20;39.92;;;;;;;;;;5060391;28;20430;-76
2021/12/27 12:08:43;;;;;;;73.55;41.55;;;;;;;;;;5077903;28;20431;-76
2021/12/27 12:11:11;;;;;;;78.10;40.30;;;;;;;;;;5059777;28;20343;-76
2021/12/27 12:13:39;;;;;;;69.50;39.53;;;;;;;;;;5077604;28;20025;-76
2021/12/27 12:16:07;;;;;;;68.30;40.50;;;;;;;;;;5043387;28;20020;-76
2021/12/27 12:18:36;;;;;;;68.43;38.00;;;;;;;;;;5060510;28;20028;-76
2021/12/27 12:21:03;;;;;;;63.80;37.47;;;;;;;;;;5077610;28;20013;-76
2021/12/27 12:23:29;;;;;;;59.72;35.42;;;;;;;;;;5043905;28;20060;-76
2021/12/27 12:25:59;;;;;;;59.55;33.75;;;;;;;;;;5043514;28;20016;-76
2021/12/27 12:28:26;;;;;;;58.42;36.17;;;;;;;;;;5077404;28;20017;-76
2021/12/27 12:30:52;;;;;;;60.22;34.17;;;;;;;;;;5077725;28;20062;-76
2021/12/27 12:33:19;;;;;;;57.10;32.08;;;;;;;;;;5059628;28;20020;-76
2021/12/27 12:35:50;;;;;;;61.63;32.60;;;;;;;;;;5059445;28;20103;-76
2021/12/27 12:38:18;;;;;;;46.90;29.90;;;;;;;;;;5059498;28;20021;-76
2021/12/27 12:40:56;;;;;;;42.88;26.15;;;;;;;;;;5043459;28;20025;-76
2021/12/27 12:43:54;;;;;;;48.90;26.58;;;;;;;;;;5043223;28;20036;-76
2021/12/27 12:46:25;;;;;;;45.63;28.00;;;;;;;;;;5059569;28;20024;-76
2021/12/27 12:48:59;;;;;;;43.45;26.90;;;;;;;;;;5059573;28;20372;-76
2021/12/27 12:51:36;;;;;;;40.40;26.88;;;;;;;;;;5076864;28;20074;-76
2021/12/27 12:54:04;;;;;;;49.72;27.30;;;;;;;;;;5077210;28;20020;-75
2021/12/27 12:56:31;;;;;;;46.55;27.95;;;;;;;;;;5059368;28;20422;-75
2021/12/27 12:58:57;;;;;;;46.47;27.20;;;;;;;;;;5042939;28;20032;-76
2021/12/27 13:01:23;;;;;;;46.08;28.45;;;;;;;;;;5042128;28;20378;-76
2021/12/27 13:03:54;;;;;;;50.20;26.73;;;;;;;;;;5042971;28;20040;-76
2021/12/27 13:06:20;;;;;;;48.92;27.30;;;;;;;;;;5058978;28;20016;-76
2021/12/27 13:08:54;;;;;;;53.25;31.17;;;;;;;;;;5042966;28;20060;-76
2021/12/27 13:11:20;;;;;;;55.88;29.77;;;;;;;;;;5059173;28;20448;-76
2021/12/27 13:13:47;;;;;;;56.90;33.35;;;;;;;;;;5043406;28;20020;-75
2021/12/27 13:16:14;;;;;;;51.05;29.35;;;;;;;;;;5077518;28;20025;-75
2021/12/27 13:18:40;;;;;;;54.22;30.38;;;;;;;;;;5077443;28;20065;-75
2021/12/27 13:21:10;;;;;;;55.55;29.40;;;;;;;;;;5043158;28;20051;-75
2021/12/27 13:23:41;;;;;;;59.93;33.60;;;;;;;;;;5058720;28;20044;-76
2021/12/27 13:26:13;;;;;;;73.40;40.80;;;;;;;;;;5042480;28;20253;-76
2021/12/27 13:28:42;;;;;;;71.38;37.10;;;;;;;;;;5042799;28;20100;-76
2021/12/27 13:31:16;;;;;;;57.20;29.90;;;;;;;;;;5059167;28;20024;-75
2021/12/27 13:33:45;;;;;;;54.60;31.50;;;;;;;;;;5042928;28;20024;-75
2021/12/27 13:36:34;;;;;;;50.03;30.67;;;;;;;;;;5059659;28;20016;-76
2021/12/27 13:39:00;;;;;;;63.90;35.65;;;;;;;;;;5043035;28;20115;-76
2021/12/27 13:41:28;;;;;;;67.35;34.13;;;;;;;;;;5077000;28;20093;-76
2021/12/27 13:43:57;;;;;;;52.80;32.65;;;;;;;;;;5076462;28;20029;-76
2021/12/27 13:46:34;;;;;;;59.03;33.92;;;;;;;;;;5059238;28;20051;-76
2021/12/27 13:49:03;;;;;;;51.25;31.67;;;;;;;;;;5076753;28;20028;-76
2021/12/27 13:51:30;;;;;;;54.47;32.40;;;;;;;;;;5058736;28;20027;-76
2021/12/27 13:53:58;;;;;;;62.90;36.35;;;;;;;;;;5059370;28;20047;-76
2021/12/27 13:56:25;;;;;;;67.57;33.47;;;;;;;;;;5058909;28;20081;-76
2021/12/27 13:58:51;;;;;;;58.63;34.80;;;;;;;;;;5058990;28;20016;-76
2021/12/27 14:01:19;;;;;;;56.22;33.92;;;;;;;;;;5042148;28;20346;-76
2021/12/27 14:03:48;;;;;;;62.05;31.30;;;;;;;;;;5076144;28;20036;-76
2021/12/27 14:06:15;;;;;;;63.13;37.38;;;;;;;;;;5042592;28;20373;-76
2021/12/27 14:08:55;;;;;;;66.53;35.55;;;;;;;;;;5058927;28;20048;-76
2021/12/27 14:11:21;;;;;;;63.75;35.10;;;;;;;;;;5059157;28;20016;-76
2021/12/27 14:13:57;;;;;;;47.58;30.75;;;;;;;;;;5046410;28;20023;-75
2021/12/27 14:16:33;;;;;;;58.10;31.00;;;;;;;;;;5062840;28;20028;-75
2021/12/27 14:19:03;;;;;;;45.63;24.83;;;;;;;;;;5045875;28;20023;-76
2021/12/27 14:21:29;;;;;;;42.70;24.73;;;;;;;;;;5063200;28;20016;-77
2021/12/27 14:24:05;;;;;;;43.67;27.27;;;;;;;;;;5062947;28;20040;-75
2021/12/27 14:26:31;;;;;;;58.42;26.98;;;;;;;;;;5062570;28;20024;-75
2021/12/27 14:29:13;;;;;;;54.90;28.23;;;;;;;;;;5045868;28;20038;-76
2021/12/27 14:31:39;;;;;;;55.47;31.98;;;;;;;;;;5080839;28;20034;-76
2021/12/27 14:34:05;;;;;;;54.38;31.63;;;;;;;;;;5046156;28;20020;-76
2021/12/27 14:36:32;;;;;;;53.05;31.27;;;;;;;;;;5045903;28;20031;-76
2021/12/27 14:38:58;;;;;;;51.47;29.60;;;;;;;;;;5062612;28;20411;-76
2021/12/27 14:41:24;;;;;;;55.45;30.17;;;;;;;;;;5062286;28;20078;-76
2021/12/27 14:43:50;;;;;;;49.72;30.20;;;;;;;;;;5080826;28;20359;-76